createdAt,value
2023-05-13T00:00:31.636Z,91.36
2023-05-13T00:03:01.983Z,91.24
2023-05-13T00:05:30.417Z,91.55
2023-05-13T00:08:28.012Z,91.73
2023-05-13T00:11:16.185Z,91.55
2023-05-13T00:14:34.333Z,91.78
2023-05-13T00:17:04.950Z,91.89
2023-05-13T00:19:44.488Z,91.95
2023-05-13T00:23:03.402Z,91.96
2023-05-13T00:25:34.088Z,91.85
2023-05-13T00:28:15.122Z,92.12
2023-05-13T00:31:10.233Z,91.72
2023-05-13T00:33:55.295Z,92.16
2023-05-13T00:37:15.348Z,92.17
2023-05-13T00:40:17.448Z,92.29
2023-05-13T00:42:55.628Z,92.44
2023-05-13T00:45:50.871Z,92.30
2023-05-13T00:48:22.361Z,92.26
2023-05-13T00:51:15.710Z,92.19
2023-05-13T00:53:49.583Z,92.01
2023-05-13T00:56:22.126Z,91.96
2023-05-13T01:03:15.355Z,92.03
2023-05-13T01:05:52.490Z,91.86
2023-05-13T01:09:25.055Z,92.10
2023-05-13T01:11:56.811Z,92.05
2023-05-13T01:14:34.600Z,91.54
2023-05-13T01:17:12.935Z,91.51
2023-05-13T01:19:47.688Z,91.70
2023-05-13T01:22:28.770Z,91.66
2023-05-13T01:24:57.130Z,91.13
2023-05-13T01:27:45.214Z,91.41
2023-05-13T01:30:39.697Z,91.46
2023-05-13T01:33:11.916Z,91.42
2023-05-13T01:35:40.738Z,91.21
2023-05-13T01:38:20.150Z,91.35
2023-05-13T01:41:11.348Z,91.56
2023-05-13T01:48:18.925Z,91.71
2023-05-13T01:55:17.473Z,92.02
2023-05-13T02:02:06.864Z,92.23
2023-05-13T02:09:55.617Z,92.31
2023-05-13T02:16:50.568Z,92.28
2023-05-13T02:23:38.961Z,92.48
2023-05-13T02:27:06.505Z,92.41
2023-05-13T02:34:41.017Z,92.20
2023-05-13T02:38:00.054Z,92.26
2023-05-13T02:44:56.146Z,92.48
2023-05-13T02:47:45.281Z,92.22
2023-05-13T02:50:16.857Z,92.34
2023-05-13T02:53:05.084Z,92.26
2023-05-13T02:55:36.972Z,92.32
2023-05-13T02:58:15.108Z,92.43
2023-05-13T03:00:50.304Z,92.60
2023-05-13T03:03:35.094Z,92.55
2023-05-13T03:07:12.341Z,92.56
2023-05-13T03:10:10.147Z,92.68
2023-05-13T03:13:24.615Z,92.66
2023-05-13T03:17:01.733Z,92.69
2023-05-13T03:23:57.163Z,92.78
2023-05-13T03:30:44.800Z,92.44
2023-05-13T03:33:47.716Z,91.99
2023-05-13T03:37:23.321Z,92.23
2023-05-13T03:44:18.572Z,91.89
2023-05-13T03:48:00.952Z,91.90
2023-05-13T03:50:59.612Z,91.99
2023-05-13T03:54:03.369Z,92.01
2023-05-13T04:01:05.578Z,92.32
2023-05-13T04:04:03.525Z,91.99
2023-05-13T04:06:47.121Z,92.19
2023-05-13T04:09:19.911Z,92.51
2023-05-13T04:12:00.199Z,92.14
2023-05-13T04:19:22.336Z,91.86
2023-05-13T04:26:16.268Z,91.99
2023-05-13T04:29:26.294Z,91.89
2023-05-13T04:32:23.338Z,91.96
2023-05-13T04:35:23.473Z,91.84
2023-05-13T04:38:12.021Z,91.48
2023-05-13T04:40:49.794Z,91.48
2023-05-13T04:48:42.992Z,91.37
2023-05-13T04:51:39.772Z,91.31
2023-05-13T04:54:23.156Z,91.22
2023-05-13T05:06:07.698Z,89.33
2023-05-13T05:08:52.491Z,88.96
2023-05-13T05:12:15.288Z,88.43
2023-05-13T05:15:55.127Z,88.74
2023-05-13T05:19:29.621Z,89.31
2023-05-13T05:26:25.250Z,87.47
2023-05-13T05:28:58.669Z,88.14
2023-05-13T05:31:31.974Z,88.77
2023-05-13T05:34:03.345Z,87.62
2023-05-13T05:36:31.630Z,88.76
2023-05-13T05:39:04.029Z,88.89
2023-05-13T05:41:40.178Z,89.70
2023-05-13T05:44:14.278Z,89.57
2023-05-13T05:46:48.161Z,88.85
2023-05-13T05:53:41.345Z,88.75
2023-05-13T05:57:03.423Z,89.06
2023-05-13T05:59:59.717Z,88.52
2023-05-13T06:03:09.469Z,88.50
2023-05-13T06:05:39.453Z,88.38
2023-05-13T06:08:09.688Z,88.38
2023-05-13T06:10:42.036Z,88.04
2023-05-13T06:13:18.661Z,88.18
2023-05-13T06:19:50.553Z,89.02
2023-05-13T06:22:20.267Z,87.15
2023-05-13T06:25:38.309Z,87.36
2023-05-13T06:28:13.756Z,87.64
2023-05-13T06:30:48.802Z,87.11
2023-05-13T06:33:19.405Z,88.79
2023-05-13T06:36:11.339Z,88.77
2023-05-13T06:39:33.525Z,87.82
2023-05-13T06:42:07.810Z,88.76
2023-05-13T06:45:09.471Z,88.23
2023-05-13T06:47:38.814Z,87.35
2023-05-13T06:50:31.747Z,87.40
2023-05-13T06:53:31.912Z,87.73
2023-05-13T06:56:09.140Z,88.14
2023-05-13T06:59:34.457Z,87.96
2023-05-13T07:03:12.491Z,87.95
2023-05-13T07:05:42.194Z,87.66
2023-05-13T07:08:10.886Z,87.04
2023-05-13T07:10:44.271Z,88.35
2023-05-13T07:13:35.105Z,89.68
2023-05-13T07:20:26.685Z,87.20
2023-05-13T07:23:09.596Z,87.29
2023-05-13T07:32:37.280Z,88.21
2023-05-13T07:39:25.594Z,87.12
2023-05-13T07:49:39.264Z,85.94
2023-05-13T07:53:22.974Z,86.77
2023-05-13T07:56:18.721Z,86.47
2023-05-13T08:03:31.574Z,86.48
2023-05-13T08:41:36.277Z,88.39
2023-05-13T08:44:08.255Z,87.02
2023-05-13T08:46:39.076Z,86.18
2023-05-13T08:49:07.952Z,87.51
2023-05-13T08:51:36.153Z,85.59
2023-05-13T08:54:05.100Z,87.64
2023-05-13T08:56:35.651Z,87.91
2023-05-13T08:59:05.918Z,85.94
2023-05-13T09:01:35.376Z,86.25
2023-05-13T09:04:08.234Z,85.70
2023-05-13T09:06:36.552Z,87.50
2023-05-13T09:09:05.989Z,86.86
2023-05-13T09:11:35.684Z,87.21
2023-05-13T09:14:07.319Z,87.60
2023-05-13T09:16:36.554Z,86.80
2023-05-13T09:19:07.280Z,86.62
2023-05-13T09:21:36.766Z,85.82
2023-05-13T09:24:11.140Z,88.03
2023-05-13T09:26:43.239Z,86.59
2023-05-13T09:29:16.381Z,86.31
2023-05-13T09:31:45.085Z,87.74
2023-05-13T09:34:13.501Z,86.64
2023-05-13T09:36:43.081Z,85.20
2023-05-13T09:39:13.090Z,86.77
2023-05-13T09:41:47.209Z,87.43
2023-05-13T09:44:16.038Z,86.86
2023-05-13T09:46:44.961Z,86.65
2023-05-13T09:49:13.319Z,86.70
2023-05-13T09:51:41.627Z,87.06
2023-05-13T09:54:09.818Z,85.50
2023-05-13T09:56:38.433Z,85.06
2023-05-13T09:59:08.485Z,85.11
2023-05-13T10:01:37.673Z,84.26
2023-05-13T10:04:06.357Z,84.50
2023-05-13T10:06:35.501Z,83.73
2023-05-13T10:09:04.460Z,84.23
2023-05-13T10:11:36.250Z,84.69
2023-05-13T10:14:09.029Z,83.65
2023-05-13T10:16:37.929Z,84.91
2023-05-13T10:19:06.666Z,86.08
2023-05-13T10:21:37.258Z,83.38
2023-05-13T10:24:06.688Z,84.15
2023-05-13T10:26:35.831Z,82.85
2023-05-13T10:29:04.788Z,84.36
2023-05-13T10:31:39.669Z,82.56
2023-05-13T10:34:08.010Z,81.73
2023-05-13T10:36:59.520Z,83.21
2023-05-13T10:40:05.695Z,81.28
2023-05-13T10:42:44.289Z,81.56
2023-05-13T10:45:12.840Z,83.38
2023-05-13T10:47:42.364Z,83.35
2023-05-13T10:50:27.513Z,81.68
2023-05-13T10:52:58.323Z,81.59
2023-05-13T10:55:28.231Z,83.83
2023-05-13T10:58:08.458Z,83.37
2023-05-13T11:00:37.651Z,81.66
2023-05-13T11:03:29.294Z,82.64
2023-05-13T11:06:04.756Z,81.97
2023-05-13T11:08:40.088Z,83.18
2023-05-13T11:11:28.468Z,83.71
2023-05-13T11:14:04.021Z,81.09
2023-05-13T11:16:32.618Z,84.71
2023-05-13T11:19:04.223Z,81.28
2023-05-13T11:21:34.067Z,81.65
2023-05-13T11:24:05.638Z,82.52
2023-05-13T11:26:47.393Z,81.35
2023-05-13T11:29:16.188Z,84.92
2023-05-13T11:31:46.952Z,82.43
2023-05-13T11:34:18.230Z,82.94
2023-05-13T11:36:48.236Z,82.81
2023-05-13T11:39:17.892Z,81.61
2023-05-13T11:41:47.990Z,82.72
2023-05-13T11:44:17.953Z,84.49
2023-05-13T11:46:56.224Z,81.76
2023-05-13T11:49:40.332Z,81.78
2023-05-13T11:52:11.062Z,79.95
2023-05-13T11:54:44.573Z,82.78
2023-05-13T11:57:19.777Z,82.13
2023-05-13T11:59:55.162Z,81.55
2023-05-13T12:02:24.670Z,80.17
2023-05-13T12:04:54.849Z,81.10
2023-05-13T12:07:25.010Z,81.29
2023-05-13T12:09:54.107Z,82.02
2023-05-13T12:12:22.981Z,82.30
2023-05-13T12:14:51.721Z,81.34
2023-05-13T12:17:20.538Z,83.52
2023-05-13T12:20:23.629Z,82.65
2023-05-13T12:22:57.785Z,81.37
2023-05-13T12:25:42.494Z,82.69
2023-05-13T12:28:13.279Z,83.86
2023-05-13T12:30:43.029Z,82.05
2023-05-13T12:33:16.196Z,82.54
2023-05-13T12:35:46.314Z,81.80
2023-05-13T12:38:18.478Z,81.91
2023-05-13T12:40:47.538Z,80.95
2023-05-13T12:43:17.497Z,82.15
2023-05-13T12:45:48.778Z,83.25
2023-05-13T12:48:16.985Z,83.73
2023-05-13T12:50:46.817Z,82.46
2023-05-13T12:53:15.052Z,82.36
2023-05-13T12:55:43.617Z,81.34
2023-05-13T12:58:13.094Z,82.34
2023-05-13T13:00:41.384Z,82.63
2023-05-13T13:03:10.014Z,79.34
2023-05-13T13:05:38.436Z,79.59
2023-05-13T13:08:08.130Z,80.71
2023-05-13T13:10:37.077Z,80.10
2023-05-13T13:13:05.336Z,79.34
2023-05-13T13:15:33.872Z,78.63
2023-05-13T13:18:02.035Z,77.12
2023-05-13T13:20:30.261Z,79.55
2023-05-13T13:22:59.959Z,80.98
2023-05-13T13:25:30.026Z,81.13
2023-05-13T13:27:58.357Z,81.15
2023-05-13T13:30:26.578Z,80.61
2023-05-13T13:32:55.064Z,80.73
2023-05-13T13:35:23.457Z,80.24
2023-05-13T13:37:51.930Z,77.54
2023-05-13T13:40:20.245Z,79.47
2023-05-13T13:42:50.014Z,78.60
2023-05-13T13:45:18.117Z,78.90
2023-05-13T13:47:46.443Z,78.35
2023-05-13T13:50:14.715Z,79.81
2023-05-13T13:52:42.954Z,81.64
2023-05-13T13:55:12.641Z,79.74
2023-05-13T13:57:40.963Z,80.78
2023-05-13T14:00:11.830Z,80.50
2023-05-13T14:02:40.980Z,80.91
2023-05-13T14:05:10.087Z,81.05
2023-05-13T14:07:39.431Z,80.68
2023-05-13T14:10:09.014Z,77.98
2023-05-13T14:12:37.398Z,80.66
2023-05-13T14:15:06.584Z,78.85
2023-05-13T14:17:36.373Z,79.02
2023-05-13T14:20:05.446Z,80.69
2023-05-13T14:22:33.790Z,77.05
2023-05-13T14:25:02.028Z,78.77
2023-05-13T14:27:30.221Z,80.61
2023-05-13T14:29:59.081Z,80.64
2023-05-13T14:32:27.319Z,78.78
2023-05-13T14:34:57.035Z,78.70
2023-05-13T14:37:25.365Z,78.53
2023-05-13T14:39:53.630Z,79.22
2023-05-13T14:42:21.774Z,78.61
2023-05-13T14:44:49.984Z,81.48
2023-05-13T14:47:18.241Z,79.17
2023-05-13T14:49:46.415Z,78.36
2023-05-13T14:52:17.228Z,78.65
2023-05-13T14:54:45.404Z,79.66
2023-05-13T14:57:14.902Z,78.03
2023-05-13T14:59:43.129Z,79.62
2023-05-13T15:02:13.894Z,77.70
2023-05-13T15:04:42.565Z,79.08
2023-05-13T15:07:10.762Z,78.63
2023-05-13T15:09:40.401Z,76.86
2023-05-13T15:12:09.650Z,76.93
2023-05-13T15:14:37.827Z,78.84
2023-05-13T15:17:10.759Z,78.91
2023-05-13T15:19:39.983Z,77.27
2023-05-13T15:22:08.318Z,78.66
2023-05-13T15:24:37.526Z,78.65
2023-05-13T15:27:07.757Z,78.61
2023-05-13T15:29:38.098Z,76.57
2023-05-13T15:32:08.731Z,77.20
2023-05-13T15:34:37.055Z,77.39
2023-05-13T15:37:05.469Z,76.87
2023-05-13T15:39:33.856Z,79.38
2023-05-13T15:42:02.104Z,77.69
2023-05-13T15:44:31.854Z,77.95
2023-05-13T15:47:00.210Z,77.97
2023-05-13T15:49:28.377Z,79.07
2023-05-13T15:51:57.838Z,76.28
2023-05-13T15:54:26.022Z,77.06
2023-05-13T15:56:56.415Z,79.02
2023-05-13T15:59:24.701Z,79.39
2023-05-13T16:01:54.596Z,79.58
2023-05-13T16:04:22.922Z,79.27
2023-05-13T16:06:51.250Z,77.65
2023-05-13T16:09:19.376Z,78.88
2023-05-13T16:11:47.587Z,78.54
2023-05-13T16:14:16.723Z,77.80
2023-05-13T16:16:48.738Z,78.63
2023-05-13T16:19:18.403Z,80.06
2023-05-13T16:21:46.543Z,80.57
2023-05-13T16:24:14.822Z,77.69
2023-05-13T16:26:43.202Z,79.35
2023-05-13T16:29:11.555Z,78.04
2023-05-13T16:31:43.830Z,78.03
2023-05-13T16:34:12.038Z,78.68
2023-05-13T16:36:41.596Z,79.58
2023-05-13T16:39:09.706Z,80.95
2023-05-13T16:41:38.150Z,78.54
2023-05-13T16:44:06.721Z,79.33
2023-05-13T16:46:36.000Z,79.32
2023-05-13T16:49:04.499Z,78.46
2023-05-13T16:51:32.784Z,77.95
2023-05-13T16:54:02.742Z,78.86
2023-05-13T16:56:31.762Z,77.70
2023-05-13T16:59:00.043Z,79.18
2023-05-13T17:01:28.338Z,78.18
2023-05-13T17:03:57.019Z,79.15
2023-05-13T17:06:25.253Z,77.38
2023-05-13T17:08:53.342Z,77.93
2023-05-13T17:11:22.906Z,76.70
2023-05-13T17:13:51.297Z,77.61
2023-05-13T17:16:19.638Z,78.15
2023-05-13T17:22:21.595Z,79.09
2023-05-13T17:24:49.800Z,78.56
2023-05-13T17:27:19.334Z,78.76
2023-05-13T17:29:47.621Z,78.65
2023-05-13T17:32:16.135Z,79.12
2023-05-13T17:34:44.386Z,79.49
2023-05-13T17:37:12.562Z,79.18
2023-05-13T17:39:40.753Z,79.69
2023-05-13T17:42:09.271Z,79.06
2023-05-13T17:44:38.767Z,80.13
2023-05-13T17:47:08.133Z,79.47
2023-05-13T17:49:36.435Z,79.07
2023-05-13T17:52:09.169Z,78.79
2023-05-13T17:54:37.355Z,79.77
2023-05-13T17:57:05.967Z,79.56
2023-05-13T17:59:34.205Z,80.46
2023-05-13T18:02:05.977Z,79.55
2023-05-13T18:04:34.205Z,80.64
2023-05-13T18:07:04.353Z,80.89
2023-05-13T18:09:32.549Z,80.79
2023-05-13T18:12:00.898Z,80.34
2023-05-13T18:14:32.424Z,80.48
2023-05-13T18:17:00.754Z,80.56
2023-05-13T18:19:30.376Z,80.17
2023-05-13T18:21:59.126Z,81.08
2023-05-13T18:24:27.291Z,81.34
2023-05-13T18:26:57.560Z,81.72
2023-05-13T18:29:26.070Z,82.54
2023-05-13T18:31:54.418Z,81.94
2023-05-13T18:34:22.789Z,81.76
2023-05-13T18:36:53.086Z,82.51
2023-05-13T18:39:21.925Z,82.53
2023-05-13T18:41:50.757Z,82.13
2023-05-13T18:44:19.058Z,82.12
2023-05-13T18:46:47.407Z,82.09
2023-05-13T18:49:15.846Z,82.44
2023-05-13T18:51:45.702Z,82.45
2023-05-13T18:54:15.461Z,82.78
2023-05-13T18:56:43.906Z,82.79
2023-05-13T18:59:12.065Z,82.90
2023-05-13T19:01:40.436Z,83.04
2023-05-13T19:04:09.409Z,83.07
2023-05-13T19:06:43.872Z,83.04
2023-05-13T19:09:15.425Z,83.18
2023-05-13T19:11:44.418Z,83.81
2023-05-13T19:14:12.695Z,84.19
2023-05-13T19:16:41.019Z,84.38
2023-05-13T19:19:09.363Z,84.44
2023-05-13T19:21:37.962Z,84.84
2023-05-13T19:24:06.412Z,84.92
2023-05-13T19:26:36.726Z,84.97
2023-05-13T19:29:05.268Z,85.08
2023-05-13T19:31:33.603Z,85.06
2023-05-13T19:34:02.074Z,84.87
2023-05-13T19:36:31.151Z,84.92
2023-05-13T19:39:01.588Z,84.90
2023-05-13T19:41:29.868Z,85.04
2023-05-13T19:43:59.669Z,84.82
2023-05-13T19:46:28.964Z,84.68
2023-05-13T19:49:01.427Z,84.33
2023-05-13T19:51:29.969Z,83.99
2023-05-13T19:53:58.556Z,83.68
2023-05-13T19:56:27.072Z,83.63
2023-05-13T19:58:55.523Z,83.81
2023-05-13T20:01:25.517Z,84.04
2023-05-13T20:03:55.471Z,83.82
2023-05-13T20:06:24.609Z,84.25
2023-05-13T20:08:54.144Z,84.39
2023-05-13T20:11:22.784Z,84.44
2023-05-13T20:13:51.230Z,84.42
2023-05-13T20:16:22.278Z,84.65
2023-05-13T20:18:52.295Z,84.74
2023-05-13T20:21:21.247Z,84.80
2023-05-13T20:23:49.624Z,85.39
2023-05-13T20:26:18.936Z,84.97
2023-05-13T20:28:47.929Z,84.69
2023-05-13T20:31:16.498Z,84.75
2023-05-13T20:33:44.860Z,84.89
2023-05-13T20:36:14.770Z,84.82
2023-05-13T20:38:43.163Z,84.76
2023-05-13T20:41:11.657Z,84.80
2023-05-13T20:43:40.174Z,84.89
2023-05-13T20:46:09.441Z,85.00
2023-05-13T20:48:39.310Z,85.06
2023-05-13T20:51:07.450Z,85.16
2023-05-13T20:53:37.460Z,85.15
2023-05-13T20:56:06.489Z,85.37
2023-05-13T20:58:34.717Z,85.65
2023-05-13T21:01:03.144Z,85.86
2023-05-13T21:03:31.467Z,86.09
2023-05-13T21:05:59.832Z,86.37
2023-05-13T21:08:28.099Z,86.42
2023-05-13T21:10:57.775Z,86.44
2023-05-13T21:13:26.997Z,86.50
2023-05-13T21:15:55.859Z,86.46
2023-05-13T21:18:24.583Z,86.35
2023-05-13T21:20:52.984Z,86.38
2023-05-13T21:23:21.299Z,86.27
2023-05-13T21:25:49.584Z,86.20
2023-05-13T21:28:19.730Z,86.15
2023-05-13T21:30:47.917Z,86.16
2023-05-13T21:33:16.861Z,86.20
2023-05-13T21:35:45.129Z,86.17
2023-05-13T21:38:13.346Z,86.24
2023-05-13T21:40:41.687Z,86.09
2023-05-13T21:43:09.851Z,85.80
2023-05-13T21:45:40.017Z,85.58
2023-05-13T21:48:08.427Z,85.25
2023-05-13T21:50:36.874Z,85.09
2023-05-13T21:53:05.830Z,84.98
2023-05-13T21:55:35.128Z,84.77
2023-05-13T21:58:03.902Z,84.83
2023-05-13T22:00:32.122Z,84.66
2023-05-13T22:03:01.898Z,84.75
2023-05-13T22:05:42.275Z,84.67
2023-05-13T22:08:10.572Z,84.46
2023-05-13T22:10:38.890Z,84.49
2023-05-13T22:13:07.378Z,84.31
2023-05-13T22:15:35.638Z,84.48
2023-05-13T22:18:05.651Z,84.65
2023-05-13T22:20:34.046Z,84.79
2023-05-13T22:23:02.241Z,84.89
2023-05-13T22:25:30.528Z,84.59
2023-05-13T22:27:58.772Z,84.58
2023-05-13T22:30:26.941Z,84.42
2023-05-13T22:32:56.548Z,84.55
2023-05-13T22:35:26.013Z,84.48
2023-05-13T22:37:54.288Z,84.26
2023-05-13T22:40:22.650Z,84.29
2023-05-13T22:42:51.122Z,84.19
2023-05-13T22:45:19.540Z,84.10
2023-05-13T22:47:48.545Z,84.00
2023-05-13T22:50:16.841Z,83.01
2023-05-13T22:52:46.785Z,83.48
2023-05-13T22:55:15.096Z,83.38
2023-05-13T22:57:43.297Z,83.42
2023-05-13T23:00:12.685Z,83.23
2023-05-13T23:02:40.923Z,82.69
2023-05-13T23:05:10.074Z,83.48
2023-05-13T23:07:38.297Z,83.52
2023-05-13T23:10:09.065Z,83.65
2023-05-13T23:12:37.858Z,83.98
2023-05-13T23:15:07.623Z,84.70
2023-05-13T23:17:36.096Z,83.42
2023-05-13T23:20:04.445Z,83.17
2023-05-13T23:22:32.606Z,83.19
2023-05-13T23:25:00.887Z,83.55
2023-05-13T23:27:31.550Z,84.50
2023-05-13T23:29:59.842Z,85.09
2023-05-13T23:32:28.135Z,85.46
2023-05-13T23:34:56.420Z,85.32
2023-05-13T23:37:24.773Z,85.16
2023-05-13T23:39:52.927Z,84.72
2023-05-13T23:42:21.833Z,84.89
2023-05-13T23:44:51.398Z,83.77
2023-05-13T23:47:19.655Z,83.22
2023-05-13T23:49:47.835Z,83.39
2023-05-13T23:52:16.073Z,83.17
2023-05-13T23:54:44.213Z,83.58
2023-05-13T23:57:12.431Z,83.93
2023-05-13T23:59:40.451Z,84.15
